sensor_id;sensor_type;location;lat;lon;timestamp;P1;durP1;ratioP1;P2;durP2;ratioP2
71937;SDS011;59810;48.800;9.086;2022-07-23T00:01:34;6.60;;;4.47;;
71937;SDS011;59810;48.800;9.086;2022-07-23T00:04:01;6.97;;;4.47;;
71937;SDS011;59810;48.800;9.086;2022-07-23T00:06:27;9.93;;;6.03;;
71937;SDS011;59810;48.800;9.086;2022-07-23T00:08:52;7.00;;;4.43;;
71937;SDS011;59810;48.800;9.086;2022-07-23T00:11:18;7.97;;;4.33;;
71937;SDS011;59810;48.800;9.086;2022-07-23T00:13:45;7.38;;;4.00;;
71937;SDS011;59810;48.800;9.086;2022-07-23T00:16:13;7.35;;;4.65;;
71937;SDS011;59810;48.800;9.086;2022-07-23T00:18:44;6.63;;;4.03;;
71937;SDS011;59810;48.800;9.086;2022-07-23T00:21:09;7.72;;;4.30;;
71937;SDS011;59810;48.800;9.086;2022-07-23T00:23:35;7.80;;;4.60;;
71937;SDS011;59810;48.800;9.086;2022-07-23T00:26:03;7.53;;;4.27;;
71937;SDS011;59810;48.800;9.086;2022-07-23T00:28:29;7.18;;;4.43;;
71937;SDS011;59810;48.800;9.086;2022-07-23T00:30:57;7.07;;;4.55;;
71937;SDS011;59810;48.800;9.086;2022-07-23T00:33:27;7.93;;;4.55;;
71937;SDS011;59810;48.800;9.086;2022-07-23T00:35:53;8.68;;;4.57;;
71937;SDS011;59810;48.800;9.086;2022-07-23T00:38:18;7.93;;;4.50;;
71937;SDS011;59810;48.800;9.086;2022-07-23T00:40:48;6.40;;;4.18;;
71937;SDS011;59810;48.800;9.086;2022-07-23T00:43:14;7.13;;;4.40;;
71937;SDS011;59810;48.800;9.086;2022-07-23T00:45:41;6.88;;;4.20;;
71937;SDS011;59810;48.800;9.086;2022-07-23T00:48:06;10.83;;;4.37;;
71937;SDS011;59810;48.800;9.086;2022-07-23T00:50:34;8.02;;;4.85;;
71937;SDS011;59810;48.800;9.086;2022-07-23T00:52:59;6.77;;;4.17;;
71937;SDS011;59810;48.800;9.086;2022-07-23T00:55:25;7.03;;;4.17;;
71937;SDS011;59810;48.800;9.086;2022-07-23T00:57:51;6.60;;;4.22;;
71937;SDS011;59810;48.800;9.086;2022-07-23T01:00:17;8.13;;;4.60;;
71937;SDS011;59810;48.800;9.086;2022-07-23T01:02:43;7.10;;;4.20;;
71937;SDS011;59810;48.800;9.086;2022-07-23T01:05:08;6.57;;;4.10;;
71937;SDS011;59810;48.800;9.086;2022-07-23T01:07:35;6.80;;;4.38;;
71937;SDS011;59810;48.800;9.086;2022-07-23T01:10:03;7.57;;;4.20;;
71937;SDS011;59810;48.800;9.086;2022-07-23T01:12:29;7.18;;;3.97;;
71937;SDS011;59810;48.800;9.086;2022-07-23T01:14:58;6.93;;;4.03;;
71937;SDS011;59810;48.800;9.086;2022-07-23T01:17:24;6.53;;;4.20;;
71937;SDS011;59810;48.800;9.086;2022-07-23T01:19:50;6.68;;;3.92;;
71937;SDS011;59810;48.800;9.086;2022-07-23T01:22:17;6.80;;;3.90;;
71937;SDS011;59810;48.800;9.086;2022-07-23T01:24:44;5.88;;;3.80;;
71937;SDS011;59810;48.800;9.086;2022-07-23T01:27:09;7.23;;;3.77;;
71937;SDS011;59810;48.800;9.086;2022-07-23T01:29:35;7.63;;;4.37;;
71937;SDS011;59810;48.800;9.086;2022-07-23T01:32:00;7.35;;;4.75;;
71937;SDS011;59810;48.800;9.086;2022-07-23T01:34:26;6.97;;;3.87;;
71937;SDS011;59810;48.800;9.086;2022-07-23T01:36:51;6.40;;;3.83;;
71937;SDS011;59810;48.800;9.086;2022-07-23T01:39:16;7.40;;;4.43;;
71937;SDS011;59810;48.800;9.086;2022-07-23T01:41:42;6.70;;;4.22;;
71937;SDS011;59810;48.800;9.086;2022-07-23T01:44:07;6.07;;;3.73;;
71937;SDS011;59810;48.800;9.086;2022-07-23T01:46:33;8.33;;;4.33;;
71937;SDS011;59810;48.800;9.086;2022-07-23T01:48:58;6.70;;;4.07;;
71937;SDS011;59810;48.800;9.086;2022-07-23T01:51:23;6.37;;;4.07;;
71937;SDS011;59810;48.800;9.086;2022-07-23T01:53:49;7.43;;;4.07;;
71937;SDS011;59810;48.800;9.086;2022-07-23T01:56:14;7.57;;;4.37;;
71937;SDS011;59810;48.800;9.086;2022-07-23T01:58:40;6.97;;;4.43;;
71937;SDS011;59810;48.800;9.086;2022-07-23T02:01:05;7.05;;;4.50;;
71937;SDS011;59810;48.800;9.086;2022-07-23T02:03:31;7.13;;;4.00;;
71937;SDS011;59810;48.800;9.086;2022-07-23T02:05:58;6.32;;;4.18;;
71937;SDS011;59810;48.800;9.086;2022-07-23T02:08:27;6.65;;;4.10;;
71937;SDS011;59810;48.800;9.086;2022-07-23T02:10:52;9.77;;;5.10;;
71937;SDS011;59810;48.800;9.086;2022-07-23T02:13:18;6.43;;;4.20;;
71937;SDS011;59810;48.800;9.086;2022-07-23T02:15:46;7.25;;;4.05;;
71937;SDS011;59810;48.800;9.086;2022-07-23T02:18:15;6.75;;;3.95;;
71937;SDS011;59810;48.800;9.086;2022-07-23T02:20:40;7.40;;;4.10;;
71937;SDS011;59810;48.800;9.086;2022-07-23T02:23:06;8.30;;;3.80;;
71937;SDS011;59810;48.800;9.086;2022-07-23T02:25:32;7.17;;;4.10;;
71937;SDS011;59810;48.800;9.086;2022-07-23T02:27:58;7.80;;;4.30;;
71937;SDS011;59810;48.800;9.086;2022-07-23T02:30:26;6.80;;;4.35;;
71937;SDS011;59810;48.800;9.086;2022-07-23T02:32:53;6.70;;;4.25;;
71937;SDS011;59810;48.800;9.086;2022-07-23T02:35:19;6.70;;;4.03;;
71937;SDS011;59810;48.800;9.086;2022-07-23T02:37:44;8.53;;;4.13;;
71937;SDS011;59810;48.800;9.086;2022-07-23T02:40:10;7.63;;;4.50;;
71937;SDS011;59810;48.800;9.086;2022-07-23T02:42:36;7.78;;;4.63;;
71937;SDS011;59810;48.800;9.086;2022-07-23T02:45:02;7.40;;;4.70;;
71937;SDS011;59810;48.800;9.086;2022-07-23T02:47:29;9.38;;;4.90;;
71937;SDS011;59810;48.800;9.086;2022-07-23T02:49:56;7.13;;;4.47;;
71937;SDS011;59810;48.800;9.086;2022-07-23T02:52:22;7.53;;;4.17;;
71937;SDS011;59810;48.800;9.086;2022-07-23T02:54:47;8.03;;;4.60;;
71937;SDS011;59810;48.800;9.086;2022-07-23T02:57:15;7.18;;;4.65;;
71937;SDS011;59810;48.800;9.086;2022-07-23T02:59:40;6.80;;;4.50;;
71937;SDS011;59810;48.800;9.086;2022-07-23T03:02:08;8.15;;;4.63;;
71937;SDS011;59810;48.800;9.086;2022-07-23T03:04:33;6.70;;;4.20;;
71937;SDS011;59810;48.800;9.086;2022-07-23T03:06:59;7.53;;;4.17;;
71937;SDS011;59810;48.800;9.086;2022-07-23T03:09:24;7.90;;;4.40;;
71937;SDS011;59810;48.800;9.086;2022-07-23T03:11:49;7.47;;;4.00;;
71937;SDS011;59810;48.800;9.086;2022-07-23T03:14:15;7.30;;;4.23;;
71937;SDS011;59810;48.800;9.086;2022-07-23T03:16:41;7.60;;;4.13;;
71937;SDS011;59810;48.800;9.086;2022-07-23T03:19:07;7.57;;;4.07;;
71937;SDS011;59810;48.800;9.086;2022-07-23T03:21:32;10.57;;;5.07;;
71937;SDS011;59810;48.800;9.086;2022-07-23T03:24:03;7.88;;;4.90;;
71937;SDS011;59810;48.800;9.086;2022-07-23T03:26:29;8.70;;;4.70;;
71937;SDS011;59810;48.800;9.086;2022-07-23T03:28:57;7.38;;;4.35;;
71937;SDS011;59810;48.800;9.086;2022-07-23T03:31:22;8.40;;;4.67;;
71937;SDS011;59810;48.800;9.086;2022-07-23T03:33:47;7.93;;;4.72;;
71937;SDS011;59810;48.800;9.086;2022-07-23T03:36:13;7.93;;;4.57;;
71937;SDS011;59810;48.800;9.086;2022-07-23T03:38:38;7.53;;;4.17;;
71937;SDS011;59810;48.800;9.086;2022-07-23T03:41:03;8.33;;;4.93;;
71937;SDS011;59810;48.800;9.086;2022-07-23T03:43:31;7.85;;;4.85;;
71937;SDS011;59810;48.800;9.086;2022-07-23T03:45:59;9.45;;;5.43;;
71937;SDS011;59810;48.800;9.086;2022-07-23T03:48:24;7.40;;;4.37;;
71937;SDS011;59810;48.800;9.086;2022-07-23T03:50:50;8.23;;;4.60;;
71937;SDS011;59810;48.800;9.086;2022-07-23T03:53:15;8.03;;;4.70;;
71937;SDS011;59810;48.800;9.086;2022-07-23T03:55:40;8.03;;;5.03;;
71937;SDS011;59810;48.800;9.086;2022-07-23T03:58:06;7.68;;;4.82;;
71937;SDS011;59810;48.800;9.086;2022-07-23T04:00:34;7.33;;;4.43;;
71937;SDS011;59810;48.800;9.086;2022-07-23T04:02:59;7.43;;;4.50;;
71937;SDS011;59810;48.800;9.086;2022-07-23T04:05:25;7.40;;;4.57;;
71937;SDS011;59810;48.800;9.086;2022-07-23T04:07:50;7.50;;;4.47;;
71937;SDS011;59810;48.800;9.086;2022-07-23T04:10:18;7.50;;;4.70;;
71937;SDS011;59810;48.800;9.086;2022-07-23T04:12:43;7.53;;;4.47;;
71937;SDS011;59810;48.800;9.086;2022-07-23T04:15:09;8.80;;;4.40;;
71937;SDS011;59810;48.800;9.086;2022-07-23T04:17:37;8.47;;;5.00;;
71937;SDS011;59810;48.800;9.086;2022-07-23T04:20:02;8.17;;;4.67;;
71937;SDS011;59810;48.800;9.086;2022-07-23T04:22:28;7.90;;;4.57;;
71937;SDS011;59810;48.800;9.086;2022-07-23T04:24:53;8.02;;;4.85;;
71937;SDS011;59810;48.800;9.086;2022-07-23T04:27:19;7.80;;;4.60;;
71937;SDS011;59810;48.800;9.086;2022-07-23T04:29:44;7.43;;;4.60;;
71937;SDS011;59810;48.800;9.086;2022-07-23T04:32:09;8.10;;;4.60;;
71937;SDS011;59810;48.800;9.086;2022-07-23T04:34:35;8.93;;;4.60;;
71937;SDS011;59810;48.800;9.086;2022-07-23T04:37:00;6.30;;;4.10;;
71937;SDS011;59810;48.800;9.086;2022-07-23T04:39:25;8.10;;;4.40;;
71937;SDS011;59810;48.800;9.086;2022-07-23T04:41:51;8.55;;;4.40;;
71937;SDS011;59810;48.800;9.086;2022-07-23T04:44:16;7.03;;;4.30;;
71937;SDS011;59810;48.800;9.086;2022-07-23T04:46:41;6.80;;;4.23;;
71937;SDS011;59810;48.800;9.086;2022-07-23T04:49:07;7.10;;;4.30;;
71937;SDS011;59810;48.800;9.086;2022-07-23T04:51:32;6.53;;;4.30;;
71937;SDS011;59810;48.800;9.086;2022-07-23T04:53:58;7.73;;;4.80;;
71937;SDS011;59810;48.800;9.086;2022-07-23T04:56:23;8.30;;;4.60;;
71937;SDS011;59810;48.800;9.086;2022-07-23T04:58:48;8.73;;;4.83;;
71937;SDS011;59810;48.800;9.086;2022-07-23T05:01:14;7.60;;;5.03;;
71937;SDS011;59810;48.800;9.086;2022-07-23T05:03:39;8.27;;;4.80;;
71937;SDS011;59810;48.800;9.086;2022-07-23T05:06:05;8.13;;;4.90;;
71937;SDS011;59810;48.800;9.086;2022-07-23T05:08:30;7.93;;;4.23;;
71937;SDS011;59810;48.800;9.086;2022-07-23T05:10:58;7.63;;;4.75;;
71937;SDS011;59810;48.800;9.086;2022-07-23T05:13:24;6.23;;;4.00;;
71937;SDS011;59810;48.800;9.086;2022-07-23T05:15:51;7.13;;;4.28;;
71937;SDS011;59810;48.800;9.086;2022-07-23T05:18:17;8.10;;;4.80;;
71937;SDS011;59810;48.800;9.086;2022-07-23T05:20:42;8.68;;;4.60;;
71937;SDS011;59810;48.800;9.086;2022-07-23T05:23:08;7.20;;;4.27;;
71937;SDS011;59810;48.800;9.086;2022-07-23T05:25:35;7.55;;;4.63;;
71937;SDS011;59810;48.800;9.086;2022-07-23T05:28:01;7.60;;;4.50;;
71937;SDS011;59810;48.800;9.086;2022-07-23T05:30:29;7.05;;;4.10;;
71937;SDS011;59810;48.800;9.086;2022-07-23T05:32:54;7.47;;;4.67;;
71937;SDS011;59810;48.800;9.086;2022-07-23T05:35:19;7.23;;;4.90;;
71937;SDS011;59810;48.800;9.086;2022-07-23T05:37:45;7.87;;;4.50;;
71937;SDS011;59810;48.800;9.086;2022-07-23T05:40:10;7.63;;;4.50;;
71937;SDS011;59810;48.800;9.086;2022-07-23T05:42:37;10.60;;;4.80;;
71937;SDS011;59810;48.800;9.086;2022-07-23T05:45:06;7.33;;;4.10;;
71937;SDS011;59810;48.800;9.086;2022-07-23T05:47:41;6.80;;;4.20;;
71937;SDS011;59810;48.800;9.086;2022-07-23T05:50:11;7.35;;;4.90;;
71937;SDS011;59810;48.800;9.086;2022-07-23T05:52:37;7.78;;;4.68;;
71937;SDS011;59810;48.800;9.086;2022-07-23T05:55:06;8.02;;;4.90;;
71937;SDS011;59810;48.800;9.086;2022-07-23T05:57:33;9.40;;;4.50;;
71937;SDS011;59810;48.800;9.086;2022-07-23T05:59:58;8.43;;;5.05;;
71937;SDS011;59810;48.800;9.086;2022-07-23T06:02:24;8.17;;;4.50;;
71937;SDS011;59810;48.800;9.086;2022-07-23T06:04:49;8.50;;;4.93;;
71937;SDS011;59810;48.800;9.086;2022-07-23T06:07:14;8.83;;;5.03;;
71937;SDS011;59810;48.800;9.086;2022-07-23T06:09:40;9.53;;;5.20;;
71937;SDS011;59810;48.800;9.086;2022-07-23T06:12:08;9.30;;;5.00;;
71937;SDS011;59810;48.800;9.086;2022-07-23T06:14:34;8.07;;;5.10;;
71937;SDS011;59810;48.800;9.086;2022-07-23T06:16:59;7.60;;;4.87;;
71937;SDS011;59810;48.800;9.086;2022-07-23T06:19:25;8.17;;;5.03;;
71937;SDS011;59810;48.800;9.086;2022-07-23T06:21:50;7.45;;;4.82;;
71937;SDS011;59810;48.800;9.086;2022-07-23T06:24:16;8.83;;;5.37;;
71937;SDS011;59810;48.800;9.086;2022-07-23T06:26:42;8.18;;;4.97;;
71937;SDS011;59810;48.800;9.086;2022-07-23T06:29:07;8.37;;;5.07;;
71937;SDS011;59810;48.800;9.086;2022-07-23T06:31:35;9.23;;;5.38;;
71937;SDS011;59810;48.800;9.086;2022-07-23T06:34:00;7.73;;;4.57;;
71937;SDS011;59810;48.800;9.086;2022-07-23T06:36:25;9.43;;;4.73;;
71937;SDS011;59810;48.800;9.086;2022-07-23T06:38:53;9.52;;;5.22;;
71937;SDS011;59810;48.800;9.086;2022-07-23T06:41:18;7.70;;;4.87;;
71937;SDS011;59810;48.800;9.086;2022-07-23T06:43:44;7.43;;;4.63;;
71937;SDS011;59810;48.800;9.086;2022-07-23T06:46:11;8.30;;;4.93;;
71937;SDS011;59810;48.800;9.086;2022-07-23T06:48:39;8.88;;;5.15;;
71937;SDS011;59810;48.800;9.086;2022-07-23T06:51:04;8.97;;;5.07;;
71937;SDS011;59810;48.800;9.086;2022-07-23T06:53:30;11.00;;;4.95;;
71937;SDS011;59810;48.800;9.086;2022-07-23T06:55:55;9.53;;;4.90;;
71937;SDS011;59810;48.800;9.086;2022-07-23T06:58:21;8.53;;;4.90;;
71937;SDS011;59810;48.800;9.086;2022-07-23T07:00:48;11.20;;;5.03;;
71937;SDS011;59810;48.800;9.086;2022-07-23T07:03:14;8.80;;;5.20;;
71937;SDS011;59810;48.800;9.086;2022-07-23T07:05:39;7.33;;;4.87;;
71937;SDS011;59810;48.800;9.086;2022-07-23T07:08:05;9.02;;;5.13;;
71937;SDS011;59810;48.800;9.086;2022-07-23T07:10:30;8.93;;;5.90;;
71937;SDS011;59810;48.800;9.086;2022-07-23T07:12:56;8.07;;;4.70;;
71937;SDS011;59810;48.800;9.086;2022-07-23T07:15:24;9.07;;;5.18;;
71937;SDS011;59810;48.800;9.086;2022-07-23T07:17:50;8.83;;;5.27;;
71937;SDS011;59810;48.800;9.086;2022-07-23T07:20:15;7.87;;;4.70;;
71937;SDS011;59810;48.800;9.086;2022-07-23T07:22:43;9.05;;;4.93;;
71937;SDS011;59810;48.800;9.086;2022-07-23T07:25:11;10.57;;;5.57;;
71937;SDS011;59810;48.800;9.086;2022-07-23T07:27:36;11.13;;;5.88;;
71937;SDS011;59810;48.800;9.086;2022-07-23T07:30:04;9.17;;;5.87;;
71937;SDS011;59810;48.800;9.086;2022-07-23T07:32:30;8.85;;;5.57;;
71937;SDS011;59810;48.800;9.086;2022-07-23T07:34:57;8.82;;;5.40;;
71937;SDS011;59810;48.800;9.086;2022-07-23T07:37:23;10.60;;;6.00;;
71937;SDS011;59810;48.800;9.086;2022-07-23T07:39:48;10.82;;;5.63;;
71937;SDS011;59810;48.800;9.086;2022-07-23T07:42:13;10.83;;;5.90;;
71937;SDS011;59810;48.800;9.086;2022-07-23T07:44:39;10.30;;;5.83;;
71937;SDS011;59810;48.800;9.086;2022-07-23T07:47:04;7.97;;;5.43;;
71937;SDS011;59810;48.800;9.086;2022-07-23T07:49:30;8.50;;;5.13;;
71937;SDS011;59810;48.800;9.086;2022-07-23T07:51:55;7.67;;;5.03;;
71937;SDS011;59810;48.800;9.086;2022-07-23T07:54:20;9.47;;;5.60;;
71937;SDS011;59810;48.800;9.086;2022-07-23T07:56:46;9.43;;;5.77;;
71937;SDS011;59810;48.800;9.086;2022-07-23T07:59:12;9.32;;;5.53;;
71937;SDS011;59810;48.800;9.086;2022-07-23T08:01:39;10.07;;;6.13;;
71937;SDS011;59810;48.800;9.086;2022-07-23T08:04:05;8.83;;;5.63;;
71937;SDS011;59810;48.800;9.086;2022-07-23T08:06:30;9.73;;;5.50;;
71937;SDS011;59810;48.800;9.086;2022-07-23T08:08:59;8.73;;;5.27;;
71937;SDS011;59810;48.800;9.086;2022-07-23T08:11:27;9.82;;;5.75;;
71937;SDS011;59810;48.800;9.086;2022-07-23T08:13:52;9.30;;;5.50;;
71937;SDS011;59810;48.800;9.086;2022-07-23T08:16:22;8.60;;;5.15;;
71937;SDS011;59810;48.800;9.086;2022-07-23T08:18:50;9.13;;;5.50;;
71937;SDS011;59810;48.800;9.086;2022-07-23T08:21:15;10.20;;;5.50;;
71937;SDS011;59810;48.800;9.086;2022-07-23T08:23:45;8.13;;;5.25;;
71937;SDS011;59810;48.800;9.086;2022-07-23T08:26:11;8.35;;;5.22;;
71937;SDS011;59810;48.800;9.086;2022-07-23T08:28:39;7.90;;;5.22;;
71937;SDS011;59810;48.800;9.086;2022-07-23T08:31:06;10.33;;;5.13;;
71937;SDS011;59810;48.800;9.086;2022-07-23T08:33:36;7.50;;;4.60;;
71937;SDS011;59810;48.800;9.086;2022-07-23T08:36:02;8.03;;;4.87;;
71937;SDS011;59810;48.800;9.086;2022-07-23T08:38:28;7.50;;;5.00;;
71937;SDS011;59810;48.800;9.086;2022-07-23T08:40:56;7.35;;;4.68;;
71937;SDS011;59810;48.800;9.086;2022-07-23T08:43:26;7.72;;;4.80;;
71937;SDS011;59810;48.800;9.086;2022-07-23T08:45:54;7.90;;;4.85;;
71937;SDS011;59810;48.800;9.086;2022-07-23T08:48:31;7.43;;;4.13;;
71937;SDS011;59810;48.800;9.086;2022-07-23T08:50:58;7.72;;;4.30;;
71937;SDS011;59810;48.800;9.086;2022-07-23T08:53:26;8.02;;;4.65;;
71937;SDS011;59810;48.800;9.086;2022-07-23T08:55:56;7.90;;;4.78;;
71937;SDS011;59810;48.800;9.086;2022-07-23T08:58:23;8.52;;;4.90;;
71937;SDS011;59810;48.800;9.086;2022-07-23T09:00:51;7.70;;;4.53;;
71937;SDS011;59810;48.800;9.086;2022-07-23T09:03:17;7.25;;;4.50;;
71937;SDS011;59810;48.800;9.086;2022-07-23T09:05:49;8.02;;;4.50;;
71937;SDS011;59810;48.800;9.086;2022-07-23T09:08:22;9.07;;;4.50;;
71937;SDS011;59810;48.800;9.086;2022-07-23T09:15:51;9.00;;;4.47;;
71937;SDS011;59810;48.800;9.086;2022-07-23T09:18:17;6.88;;;4.70;;
71937;SDS011;59810;48.800;9.086;2022-07-23T09:20:43;8.00;;;4.70;;
71937;SDS011;59810;48.800;9.086;2022-07-23T09:23:09;8.35;;;4.85;;
71937;SDS011;59810;48.800;9.086;2022-07-23T09:25:34;8.00;;;4.67;;
71937;SDS011;59810;48.800;9.086;2022-07-23T09:28:00;7.73;;;4.73;;
71937;SDS011;59810;48.800;9.086;2022-07-23T09:30:30;7.90;;;4.65;;
71937;SDS011;59810;48.800;9.086;2022-07-23T09:38:21;7.72;;;4.75;;
71937;SDS011;59810;48.800;9.086;2022-07-23T09:43:38;7.57;;;4.30;;
71937;SDS011;59810;48.800;9.086;2022-07-23T09:48:54;6.93;;;4.20;;
71937;SDS011;59810;48.800;9.086;2022-07-23T09:51:24;7.07;;;4.63;;
71937;SDS011;59810;48.800;9.086;2022-07-23T09:53:58;7.57;;;4.90;;
71937;SDS011;59810;48.800;9.086;2022-07-23T09:56:27;7.13;;;4.65;;
71937;SDS011;59810;48.800;9.086;2022-07-23T09:58:56;7.70;;;5.13;;
71937;SDS011;59810;48.800;9.086;2022-07-23T10:01:37;7.10;;;4.33;;
71937;SDS011;59810;48.800;9.086;2022-07-23T10:04:03;7.22;;;4.50;;
71937;SDS011;59810;48.800;9.086;2022-07-23T10:06:30;7.85;;;4.65;;
71937;SDS011;59810;48.800;9.086;2022-07-23T10:08:56;8.37;;;4.77;;
71937;SDS011;59810;48.800;9.086;2022-07-23T10:11:24;7.07;;;4.60;;
71937;SDS011;59810;48.800;9.086;2022-07-23T10:13:53;7.50;;;4.03;;
71937;SDS011;59810;48.800;9.086;2022-07-23T10:16:23;6.78;;;4.60;;
71937;SDS011;59810;48.800;9.086;2022-07-23T10:18:49;7.27;;;4.73;;
71937;SDS011;59810;48.800;9.086;2022-07-23T10:32:08;8.07;;;5.30;;
71937;SDS011;59810;48.800;9.086;2022-07-23T10:42:35;8.38;;;4.75;;
71937;SDS011;59810;48.800;9.086;2022-07-23T10:45:01;7.38;;;4.88;;
71937;SDS011;59810;48.800;9.086;2022-07-23T10:47:50;7.40;;;5.05;;
71937;SDS011;59810;48.800;9.086;2022-07-23T10:50:16;7.80;;;4.53;;
71937;SDS011;59810;48.800;9.086;2022-07-23T10:58:04;7.13;;;4.87;;
71937;SDS011;59810;48.800;9.086;2022-07-23T11:00:31;7.78;;;5.22;;
71937;SDS011;59810;48.800;9.086;2022-07-23T11:02:58;7.47;;;4.90;;
71937;SDS011;59810;48.800;9.086;2022-07-23T11:05:45;6.88;;;4.97;;
71937;SDS011;59810;48.800;9.086;2022-07-23T11:08:13;7.40;;;5.32;;
71937;SDS011;59810;48.800;9.086;2022-07-23T11:10:48;7.68;;;5.53;;
71937;SDS011;59810;48.800;9.086;2022-07-23T11:32:05;9.30;;;5.13;;
71937;SDS011;59810;48.800;9.086;2022-07-23T11:34:39;8.50;;;5.88;;
71937;SDS011;59810;48.800;9.086;2022-07-23T11:37:05;8.50;;;5.78;;
71937;SDS011;59810;48.800;9.086;2022-07-23T11:39:32;8.93;;;5.55;;
71937;SDS011;59810;48.800;9.086;2022-07-23T11:42:00;9.10;;;5.37;;
71937;SDS011;59810;48.800;9.086;2022-07-23T11:44:30;7.65;;;4.95;;
71937;SDS011;59810;48.800;9.086;2022-07-23T11:47:01;9.00;;;5.53;;
71937;SDS011;59810;48.800;9.086;2022-07-23T11:49:30;8.77;;;5.53;;
71937;SDS011;59810;48.800;9.086;2022-07-23T11:54:36;9.80;;;5.73;;
71937;SDS011;59810;48.800;9.086;2022-07-23T11:57:29;7.55;;;5.25;;
71937;SDS011;59810;48.800;9.086;2022-07-23T12:00:24;7.82;;;5.32;;
71937;SDS011;59810;48.800;9.086;2022-07-23T12:02:50;8.95;;;5.82;;
71937;SDS011;59810;48.800;9.086;2022-07-23T12:07:48;7.57;;;5.30;;
71937;SDS011;59810;48.800;9.086;2022-07-23T12:10:24;7.63;;;5.35;;
71937;SDS011;59810;48.800;9.086;2022-07-23T12:12:56;8.82;;;5.13;;
71937;SDS011;59810;48.800;9.086;2022-07-23T12:15:34;8.38;;;5.40;;
71937;SDS011;59810;48.800;9.086;2022-07-23T12:18:04;7.80;;;5.57;;
71937;SDS011;59810;48.800;9.086;2022-07-23T12:20:31;8.57;;;5.43;;
71937;SDS011;59810;48.800;9.086;2022-07-23T12:23:00;8.00;;;5.40;;
71937;SDS011;59810;48.800;9.086;2022-07-23T12:25:28;9.30;;;5.90;;
71937;SDS011;59810;48.800;9.086;2022-07-23T12:30:43;8.70;;;5.72;;
71937;SDS011;59810;48.800;9.086;2022-07-23T12:33:11;8.00;;;5.87;;
71937;SDS011;59810;48.800;9.086;2022-07-23T12:35:40;9.52;;;5.60;;
71937;SDS011;59810;48.800;9.086;2022-07-23T12:38:07;8.93;;;6.03;;
71937;SDS011;59810;48.800;9.086;2022-07-23T12:40:44;9.77;;;5.88;;
71937;SDS011;59810;48.800;9.086;2022-07-23T12:48:34;7.47;;;4.93;;
71937;SDS011;59810;48.800;9.086;2022-07-23T12:53:39;8.10;;;5.63;;
71937;SDS011;59810;48.800;9.086;2022-07-23T12:59:18;7.80;;;5.97;;
71937;SDS011;59810;48.800;9.086;2022-07-23T13:01:44;8.38;;;5.55;;
71937;SDS011;59810;48.800;9.086;2022-07-23T13:04:20;6.93;;;5.03;;
71937;SDS011;59810;48.800;9.086;2022-07-23T13:06:54;7.95;;;5.82;;
71937;SDS011;59810;48.800;9.086;2022-07-23T13:09:28;7.93;;;5.75;;
71937;SDS011;59810;48.800;9.086;2022-07-23T13:11:55;8.73;;;5.40;;
71937;SDS011;59810;48.800;9.086;2022-07-23T13:14:22;9.63;;;5.68;;
71937;SDS011;59810;48.800;9.086;2022-07-23T13:16:49;7.88;;;5.53;;
71937;SDS011;59810;48.800;9.086;2022-07-23T13:19:16;8.85;;;6.07;;
71937;SDS011;59810;48.800;9.086;2022-07-23T13:21:41;8.03;;;5.80;;
71937;SDS011;59810;48.800;9.086;2022-07-23T13:24:08;7.90;;;5.70;;
71937;SDS011;59810;48.800;9.086;2022-07-23T13:26:35;9.07;;;5.45;;
71937;SDS011;59810;48.800;9.086;2022-07-23T13:29:06;7.53;;;5.55;;
71937;SDS011;59810;48.800;9.086;2022-07-23T13:31:35;7.50;;;5.40;;
71937;SDS011;59810;48.800;9.086;2022-07-23T13:34:02;8.38;;;5.43;;
71937;SDS011;59810;48.800;9.086;2022-07-23T13:36:33;7.95;;;6.10;;
71937;SDS011;59810;48.800;9.086;2022-07-23T13:38:58;8.07;;;5.35;;
71937;SDS011;59810;48.800;9.086;2022-07-23T13:41:26;8.15;;;6.45;;
71937;SDS011;59810;48.800;9.086;2022-07-23T13:43:54;9.67;;;6.10;;
71937;SDS011;59810;48.800;9.086;2022-07-23T13:46:20;7.40;;;5.38;;
71937;SDS011;59810;48.800;9.086;2022-07-23T13:48:46;9.40;;;7.37;;
71937;SDS011;59810;48.800;9.086;2022-07-23T13:51:14;9.40;;;6.43;;
71937;SDS011;59810;48.800;9.086;2022-07-23T13:53:42;9.15;;;6.45;;
71937;SDS011;59810;48.800;9.086;2022-07-23T13:56:10;8.40;;;6.05;;
71937;SDS011;59810;48.800;9.086;2022-07-23T13:58:38;7.90;;;6.05;;
71937;SDS011;59810;48.800;9.086;2022-07-23T14:01:05;9.32;;;6.38;;
71937;SDS011;59810;48.800;9.086;2022-07-23T14:03:30;8.70;;;5.63;;
71937;SDS011;59810;48.800;9.086;2022-07-23T14:05:56;10.77;;;6.60;;
71937;SDS011;59810;48.800;9.086;2022-07-23T14:08:21;8.70;;;6.20;;
71937;SDS011;59810;48.800;9.086;2022-07-23T14:10:47;8.70;;;6.07;;
71937;SDS011;59810;48.800;9.086;2022-07-23T14:13:12;8.83;;;6.20;;
71937;SDS011;59810;48.800;9.086;2022-07-23T14:15:37;9.50;;;6.50;;
71937;SDS011;59810;48.800;9.086;2022-07-23T14:18:05;9.20;;;6.05;;
71937;SDS011;59810;48.800;9.086;2022-07-23T14:20:33;8.95;;;6.22;;
71937;SDS011;59810;48.800;9.086;2022-07-23T14:22:58;8.10;;;5.77;;
71937;SDS011;59810;48.800;9.086;2022-07-23T14:25:25;7.93;;;6.15;;
71937;SDS011;59810;48.800;9.086;2022-07-23T14:27:51;9.03;;;6.33;;
71937;SDS011;59810;48.800;9.086;2022-07-23T14:30:16;6.85;;;5.57;;
71937;SDS011;59810;48.800;9.086;2022-07-23T14:32:41;7.93;;;6.20;;
71937;SDS011;59810;48.800;9.086;2022-07-23T14:35:07;9.23;;;6.47;;
71937;SDS011;59810;48.800;9.086;2022-07-23T14:37:33;8.15;;;6.50;;
71937;SDS011;59810;48.800;9.086;2022-07-23T14:39:59;9.03;;;6.30;;
71937;SDS011;59810;48.800;9.086;2022-07-23T14:42:24;8.25;;;5.82;;
71937;SDS011;59810;48.800;9.086;2022-07-23T14:44:50;8.60;;;6.53;;
71937;SDS011;59810;48.800;9.086;2022-07-23T14:47:15;8.27;;;6.07;;
71937;SDS011;59810;48.800;9.086;2022-07-23T14:49:40;9.75;;;6.18;;
71937;SDS011;59810;48.800;9.086;2022-07-23T14:52:06;9.83;;;6.73;;
71937;SDS011;59810;48.800;9.086;2022-07-23T14:54:34;9.40;;;6.65;;
71937;SDS011;59810;48.800;9.086;2022-07-23T14:57:00;8.45;;;6.45;;
71937;SDS011;59810;48.800;9.086;2022-07-23T14:59:26;10.33;;;6.63;;
71937;SDS011;59810;48.800;9.086;2022-07-23T15:01:52;8.43;;;6.38;;
71937;SDS011;59810;48.800;9.086;2022-07-23T15:04:17;8.27;;;6.60;;
71937;SDS011;59810;48.800;9.086;2022-07-23T15:06:45;8.90;;;6.65;;
71937;SDS011;59810;48.800;9.086;2022-07-23T15:09:11;9.97;;;6.90;;
71937;SDS011;59810;48.800;9.086;2022-07-23T15:11:36;7.70;;;6.30;;
71937;SDS011;59810;48.800;9.086;2022-07-23T15:14:06;9.85;;;6.57;;
71937;SDS011;59810;48.800;9.086;2022-07-23T15:16:34;8.73;;;6.63;;
71937;SDS011;59810;48.800;9.086;2022-07-23T15:19:00;8.40;;;6.27;;
71937;SDS011;59810;48.800;9.086;2022-07-23T15:21:26;7.57;;;6.53;;
71937;SDS011;59810;48.800;9.086;2022-07-23T15:23:54;10.35;;;8.35;;
71937;SDS011;59810;48.800;9.086;2022-07-23T15:26:20;8.20;;;6.90;;
71937;SDS011;59810;48.800;9.086;2022-07-23T15:28:46;8.43;;;6.40;;
71937;SDS011;59810;48.800;9.086;2022-07-23T15:31:12;9.45;;;6.30;;
71937;SDS011;59810;48.800;9.086;2022-07-23T15:33:37;9.00;;;7.13;;
71937;SDS011;59810;48.800;9.086;2022-07-23T15:36:04;9.05;;;7.25;;
71937;SDS011;59810;48.800;9.086;2022-07-23T15:38:34;12.40;;;6.40;;
71937;SDS011;59810;48.800;9.086;2022-07-23T15:40:59;8.55;;;6.75;;
71937;SDS011;59810;48.800;9.086;2022-07-23T15:43:25;8.07;;;6.70;;
71937;SDS011;59810;48.800;9.086;2022-07-23T15:45:52;7.90;;;6.25;;
71937;SDS011;59810;48.800;9.086;2022-07-23T15:48:20;10.00;;;7.07;;
71937;SDS011;59810;48.800;9.086;2022-07-23T15:50:47;7.73;;;6.73;;
71937;SDS011;59810;48.800;9.086;2022-07-23T15:53:12;8.55;;;6.88;;
71937;SDS011;59810;48.800;9.086;2022-07-23T15:55:38;8.27;;;7.17;;
71937;SDS011;59810;48.800;9.086;2022-07-23T15:58:04;11.52;;;6.72;;
71937;SDS011;59810;48.800;9.086;2022-07-23T16:00:32;10.07;;;7.05;;
71937;SDS011;59810;48.800;9.086;2022-07-23T16:02:58;8.98;;;6.97;;
71937;SDS011;59810;48.800;9.086;2022-07-23T16:05:23;10.13;;;7.33;;